• Join FlightAware (Why Join?)
  • Login
  • US Flag 
06:59AM EDT


 

Airport Tracker/Info


-or-


 

Live Flight TrackerFlight Track Log ✈ N502QS ✈ 21-Aug-2013 ✈ KRNO - KSNA

Flight Track Log - Related Links

Times and Time Zones

All times are in EDT time to prevent confusion due to time zone crossing. See the N502QS flight status page for this flight to view local times or setup timezone preferences in your user account.

Time Position Orientation Groundspeed Altitude Reporting Facility
EDT Latitude Longitude Course Direction KTS MPH feet Rate Location/Type
10:19PM 39.6000 -119.7333 21° North 275 316 9,400  Level Northern Cal TRACON
10:20PM 39.6550 -119.7753 330° Northwest 301 346 12,600 3,120 Climbing Oakland Center
10:21PM 39.6208 -119.8594 242° Southwest 288 331 15,500 2,160 Climbing Oakland Center
10:22PM 39.5192 -119.8742 186° South 345 397 17,000 1,260 Climbing Oakland Center
10:23PM 39.4128 -119.8969 189° South 378 435 18,100 1,080 Climbing Oakland Center
10:24PM 38.9830 -119.6333 180° South  Level FlightAware Approximate
10:24PM 39.3078 -119.9428 199° South 394 453 19,300  Level Oakland Center
10:25PM 39.1800 -119.9967 198° South 400 460 22,400 2,700 Climbing Oakland Center
10:26PM 39.0667 -120.0186 189° South 416 479 24,800 1,380 Climbing Oakland Center
10:27PM 38.9442 -120.0064 176° South 425 489 25,300 360 Climbing Oakland Center
10:28PM 38.8261 -119.9894 174° South 425 489 25,600 360 Climbing Oakland Center
10:29PM 38.7056 -119.9722 174° South 431 496 26,100 660 Climbing Oakland Center
10:30PM 38.5839 -119.9567 174° South 435 501 27,000 1,500 Climbing Oakland Center
10:31PM 38.4603 -119.9389 174° South 442 509 29,200 2,160 Climbing Oakland Center
10:32PM 38.3358 -119.9219 174° South 445 512 31,500 2,340 Climbing Oakland Center
10:33PM 38.2094 -119.9053 174° South 454 522 34,000 1,560 Climbing Oakland Center
10:35PM 38.0844 -119.8883 174° South 452 520 34,700 1,320 Climbing Oakland Center
10:36PM 37.9611 -119.8733 175° South 446 513 36,800 1,740 Climbing Oakland Center
10:37PM 37.8408 -119.8564 174° South 439 505 38,300 1,020 Climbing Oakland Center
10:38PM 37.7197 -119.8394 174° South 437 503 38,900 240 Climbing Oakland Center
10:39PM 37.5964 -119.8247 175° South 440 506 38,900  Level Oakland Center
10:40PM 37.4497 -119.8047 174° South 442 509 38,900  Level Oakland Center
10:41PM 37.3350 -119.7886 174° South 433 498 38,900  Level Oakland Center
10:42PM 37.2203 -119.7747 174° South 416 479 38,900  Level Oakland Center
10:43PM 37.1092 -119.7586 173° South 405 466 38,900  Level Oakland Center
10:44PM 36.9947 -119.7453 175° South 412 474 38,900  Level Oakland Center
10:45PM 36.8828 -119.7300 174° South 406 467 38,900  Level Oakland Center
10:46PM 36.7700 -119.7164 174° South 407 468 38,900  Level Oakland Center
10:47PM 36.6572 -119.7014 174° South 408 470 38,900  Level Oakland Center
10:48PM 36.5436 -119.6858 174° South 411 473 38,900  Level Oakland Center
10:49PM 36.4081 -119.6689 174° South 410 472 38,900  Level Oakland Center
10:50PM 36.2967 -119.6561 175° South 404 465 38,900  Level Oakland Center
10:51PM 36.1836 -119.6408 174° South 407 468 38,900  Level Oakland Center
10:52PM 36.0722 -119.6264 174° South 403 464 38,900  Level Oakland Center
10:53PM 35.9597 -119.6161 176° South 407 468 38,900  Level Oakland Center
10:54PM 35.8464 -119.6194 181° South 407 468 38,900  Level Oakland Center
10:55PM 35.7336 -119.6236 182° South 403 464 38,900  Level Oakland Center
10:56PM 35.6431 -119.6275 182° South 406 467 38,900  Level Los Angeles Center
10:57PM 35.5322 -119.6322 182° South 401 461 38,900  Level Los Angeles Center
10:58PM 35.3964 -119.6358 181° South 402 463 38,900  Level Los Angeles Center
10:59PM 35.2842 -119.6381 181° South 402 463 38,900 -540 Level Los Angeles Center
11:00PM 35.1797 -119.5772 155° Southeast 420 483 37,800 -1,560 Descending Los Angeles Center
11:01PM 35.0828 -119.4922 144° Southeast 426 490 35,700 -2,040 Descending Los Angeles Center
11:02PM 34.9867 -119.4108 145° Southeast 420 483 33,700 -1,980 Descending Los Angeles Center
11:03PM 34.8892 -119.3281 145° Southeast 425 489 31,700 -1,980 Descending Los Angeles Center
11:04PM 34.7894 -119.2425 145° Southeast 435 501 29,700 -1,920 Descending Los Angeles Center
11:05PM 34.6914 -119.1606 145° Southeast 430 495 27,800 -1,920 Descending Los Angeles Center
11:06PM 34.5800 -119.0706 146° Southeast 421 484 25,800 -1,860 Descending Los Angeles Center
11:07PM 34.4861 -118.9922 145° Southeast 413 475 24,000 -1,800 Descending Los Angeles Center
11:08PM 34.3958 -118.9142 144° Southeast 397 457 22,200 -1,740 Descending Los Angeles Center
11:09PM 34.2992 -118.8594 155° Southeast 381 438 20,500 -1,620 Descending Los Angeles Center
11:10PM 34.2011 -118.8242 163° South 369 425 18,900 -1,740 Descending Los Angeles Center
11:11PM 34.0886 -118.7833 163° South 355 409 17,000 -1,680 Descending Los Angeles Center
11:12PM 33.9969 -118.7497 163° South 343 395 15,500 -1,440 Descending Los Angeles Center
11:13PM 33.9067 -118.7167 163° South 340 391 14,100 -780 Descending Los Angeles Center
11:14PM 33.8183 -118.6850 163° South 337 388 14,000 -300 Descending Los Angeles Center
11:15PM 33.7294 -118.6528 163° South 337 388 13,600 -960 Descending Los Angeles Center
11:17PM 33.6458 -118.6244 164° South 317 365 11,900 -1,680 Descending Los Angeles Center
11:18PM 33.5644 -118.5517 143° Southeast 287 330 9,500 -1,920 Descending Los Angeles Center
11:19PM 33.5667 -118.4372 89° East 292 336 7,300 -1,740 Descending Los Angeles Center
11:20PM 33.5783 -118.3253 83° East 289 333 5,600 -1,140 Descending Los Angeles Center
11:21PM 33.5875 -118.2347 83° East 283 326 5,000 -360 Descending Los Angeles Center
11:22PM 33.5975 -118.1239 84° East 282 325 4,900 -60 Descending Los Angeles Center
11:23PM 33.6361 -118.0561 56° Northeast 267 307 4,900 60 Level Los Angeles Center
11:24PM 33.6667 -118.0167 47° Northeast 261 300 5,100 -360 Climbing Southern California TRACON
11:25PM 33.7167 -117.9500 48° Northeast 239 275 4,300 -960 Descending Southern California TRACON
11:26PM 33.7667 -117.9000 40° Northeast 187 215 3,200 -1,200 Descending Southern California TRACON
11:27PM 33.7667 -117.8500 90° East 176 203 2,000 -1,140 Descending Southern California TRACON
11:28PM 33.7333 -117.8333 157° South 149 171 1,100 -780 Descending Southern California TRACON
11:29PM 33.7000 -117.8500 203° Southwest 118 136 500 -600 Descending Southern California TRACON
11:31PM 33.6757 -117.8682 132° Southeast  Level Estimated
11:38PM 33.6757 -117.8682 132° Southeast  Level Estimated